Time;durP1;ratioP1;P1;durP2;ratioP2;P2;SDS_P1;SDS_P2;PMS_P1;PMS_P2;Temp;Humidity;BMP_temperature;BMP_pressure;BME280_temperature;BME280_humidity;BME280_pressure;Samples;Min_cycle;Max_cycle;Signal;HPM_P1;HPM_P2
2021/09/20 00:00:12;;;;;;;11.90;9.67;;;;;;;10.63;88.57;101587.75;2081251;28;20092;-63
2021/09/20 00:01:13;;;;;;;15.10;9.27;;;;;;;10.62;88.89;101597.38;2089879;28;20536;-63
2021/09/20 00:02:13;;;;;;;11.47;9.07;;;;;;;10.60;89.14;101587.88;2090043;28;20060;-63
2021/09/20 00:03:13;;;;;;;12.73;9.37;;;;;;;10.58;89.03;101589.66;2090157;28;20493;-63
2021/09/20 00:04:13;;;;;;;12.23;9.77;;;;;;;10.54;89.49;101586.31;2090083;28;20063;-63
2021/09/20 00:05:14;;;;;;;10.70;9.60;;;;;;;10.52;89.02;101581.13;2081227;28;20085;-63
2021/09/20 00:06:14;;;;;;;13.30;9.37;;;;;;;10.49;89.35;101588.19;2081235;28;20038;-62
2021/09/20 00:07:14;;;;;;;11.23;9.77;;;;;;;10.48;89.18;101584.72;2090032;28;20039;-63
2021/09/20 00:08:14;;;;;;;11.93;10.00;;;;;;;10.46;89.86;101586.53;2089962;28;20032;-63
2021/09/20 00:09:15;;;;;;;12.13;9.37;;;;;;;10.46;89.28;101581.31;2090032;28;20462;-63
2021/09/20 00:10:16;;;;;;;13.68;9.18;;;;;;;10.46;89.79;101586.53;2089986;28;20036;-63
2021/09/20 00:11:17;;;;;;;10.32;8.75;;;;;;;10.44;89.62;101583.09;2089994;28;20033;-62
2021/09/20 00:12:17;;;;;;;12.07;9.55;;;;;;;10.45;88.97;101584.81;2090039;28;20029;-63
2021/09/20 00:13:18;;;;;;;11.57;9.40;;;;;;;10.44;88.99;101585.69;2090016;28;20364;-63
2021/09/20 00:14:18;;;;;;;13.37;8.53;;;;;;;10.44;89.09;101583.09;2089926;28;20291;-63
2021/09/20 00:15:18;;;;;;;13.73;9.07;;;;;;;10.45;88.44;101582.22;2090056;28;20025;-63
2021/09/20 00:16:18;;;;;;;12.77;9.20;;;;;;;10.47;88.71;101587.38;2090223;28;20047;-63
2021/09/20 00:17:19;;;;;;;10.10;8.03;;;;;;;10.45;88.35;101586.56;2090012;28;20025;-63
2021/09/20 00:18:19;;;;;;;10.40;8.17;;;;;;;10.46;88.58;101596.97;2089942;28;20505;-62
2021/09/20 00:19:19;;;;;;;11.30;9.47;;;;;;;10.45;87.48;101590.03;2081106;28;20021;-63
2021/09/20 00:20:20;;;;;;;11.50;8.63;;;;;;;10.48;87.98;101589.94;2081169;28;20533;-63
2021/09/20 00:21:20;;;;;;;11.30;8.80;;;;;;;10.50;88.00;101593.34;2089935;28;20064;-61
2021/09/20 00:22:20;;;;;;;11.57;8.40;;;;;;;10.48;87.87;101589.94;2090031;28;20039;-63
2021/09/20 00:23:20;;;;;;;10.33;8.40;;;;;;;10.47;87.37;101588.22;2089995;28;20119;-63
2021/09/20 00:24:22;;;;;;;11.97;8.23;;;;;;;10.48;88.15;101589.09;2090029;28;20067;-63
2021/09/20 00:25:22;;;;;;;14.32;8.75;;;;;;;10.47;87.39;101596.06;2081102;28;20124;-63
2021/09/20 00:26:22;;;;;;;14.27;8.67;;;;;;;10.47;87.49;101588.22;2080986;28;20025;-63
2021/09/20 00:27:22;;;;;;;11.63;8.10;;;;;;;10.46;87.35;101591.75;2089779;28;20060;-62
2021/09/20 00:28:23;;;;;;;9.47;7.43;;;;;;;10.47;87.01;101596.06;2089843;28;20020;-63
2021/09/20 00:29:23;;;;;;;10.40;9.00;;;;;;;10.42;87.87;101592.69;2089870;28;20108;-63
2021/09/20 00:30:23;;;;;;;10.37;8.77;;;;;;;10.39;87.10;101585.81;2081043;28;20021;-63
2021/09/20 00:31:24;;;;;;;11.60;8.43;;;;;;;10.38;87.79;101596.31;2081169;28;20053;-63
2021/09/20 00:32:24;;;;;;;11.00;9.07;;;;;;;10.35;87.80;101593.78;2089993;28;20033;-63
2021/09/20 00:33:24;;;;;;;11.90;7.97;;;;;;;10.32;88.01;101589.50;2089953;28;20025;-63
2021/09/20 00:34:24;;;;;;;11.37;7.40;;;;;;;10.29;88.50;101590.47;2089970;28;20032;-64
2021/09/20 00:35:25;;;;;;;12.17;10.10;;;;;;;10.26;88.13;101593.16;2089953;28;20102;-63
2021/09/20 00:36:25;;;;;;;9.50;8.43;;;;;;;10.23;88.05;101585.41;2089884;28;20035;-63
2021/09/20 00:37:26;;;;;;;10.40;8.37;;;;;;;10.23;87.53;101590.63;2089934;28;20513;-63
2021/09/20 00:38:26;;;;;;;13.67;8.53;;;;;;;10.24;87.58;101588.88;2081024;28;20116;-63
2021/09/20 00:39:26;;;;;;;10.77;8.60;;;;;;;10.24;87.17;101592.34;2081073;28;20337;-63
2021/09/20 00:40:27;;;;;;;9.67;8.57;;;;;;;10.24;87.93;101587.13;2089879;28;20027;-63
2021/09/20 00:41:27;;;;;;;11.23;9.27;;;;;;;10.21;87.68;101586.34;2089878;28;20508;-63
2021/09/20 00:42:27;;;;;;;11.57;9.40;;;;;;;10.20;87.10;101577.69;2089896;28;20025;-63
2021/09/20 00:43:27;;;;;;;9.47;7.57;;;;;;;10.20;87.40;101580.31;2089895;28;20021;-63
2021/09/20 00:44:28;;;;;;;11.67;8.97;;;;;;;10.19;88.26;101581.19;2089947;28;20021;-63
2021/09/20 00:45:29;;;;;;;11.93;9.23;;;;;;;10.17;88.24;101586.44;2089861;28;20021;-63
2021/09/20 00:46:29;;;;;;;11.70;8.02;;;;;;;10.15;87.58;101588.25;2080846;28;20072;-63
2021/09/20 00:47:29;;;;;;;12.00;9.03;;;;;;;10.12;87.98;101588.34;2081088;28;20025;-63
2021/09/20 00:48:30;;;;;;;11.70;8.90;;;;;;;10.10;87.99;101591.88;2089927;28;20053;-63
2021/09/20 00:49:30;;;;;;;10.87;8.60;;;;;;;10.08;88.19;101596.28;2089927;28;20052;-63
2021/09/20 00:50:30;;;;;;;11.93;8.90;;;;;;;10.05;88.07;101592.00;2089771;28;20107;-64
2021/09/20 00:51:31;;;;;;;15.50;7.93;;;;;;;10.02;88.27;101587.75;2080977;28;20025;-63
2021/09/20 00:52:32;;;;;;;11.27;9.43;;;;;;;10.01;87.99;101586.03;2081011;28;20037;-63
2021/09/20 00:53:32;;;;;;;9.85;8.77;;;;;;;10.01;88.44;101595.59;2089847;28;20104;-62
2021/09/20 00:54:32;;;;;;;12.60;8.77;;;;;;;9.98;88.45;101585.25;2089794;28;20021;-63
2021/09/20 00:55:33;;;;;;;9.53;8.27;;;;;;;9.94;88.37;101589.72;2080987;28;20017;-63
2021/09/20 00:56:33;;;;;;;13.02;8.63;;;;;;;9.94;88.05;101594.06;2080985;28;20395;-63
2021/09/20 00:57:34;;;;;;;12.10;9.47;;;;;;;9.91;87.98;101589.78;2089302;28;20021;-64
2021/09/20 00:58:35;;;;;;;11.57;8.45;;;;;;;9.91;88.27;101589.78;2090917;28;20425;-63
2021/09/20 00:59:36;;;;;;;11.00;8.93;;;;;;;9.89;89.17;101581.16;2091465;28;20021;-63
2021/09/20 01:00:36;;;;;;;10.60;9.30;;;;;;;9.89;89.34;101583.78;2082444;28;20459;-62
2021/09/20 01:01:36;;;;;;;11.17;8.83;;;;;;;9.89;88.84;101582.00;2082517;28;20132;-63
2021/09/20 01:02:37;;;;;;;11.00;9.30;;;;;;;9.88;88.96;101584.66;2091164;28;20024;-62
2021/09/20 01:03:37;;;;;;;12.77;8.97;;;;;;;9.86;88.42;101583.84;2091300;28;20024;-63
2021/09/20 01:04:37;;;;;;;12.97;8.70;;;;;;;9.87;88.10;101577.75;2091243;28;20276;-63
2021/09/20 01:05:38;;;;;;;11.87;8.63;;;;;;;9.94;88.03;101587.09;2082441;28;20072;-63
2021/09/20 01:06:38;;;;;;;12.10;8.37;;;;;;;9.92;88.07;101583.66;2082491;28;20041;-63
2021/09/20 01:07:39;;;;;;;13.77;9.75;;;;;;;9.90;88.03;101578.53;2091326;28;20482;-63
2021/09/20 01:08:39;;;;;;;11.77;9.60;;;;;;;9.91;88.41;101584.56;2082342;28;20021;-62
2021/09/20 01:09:44;;;;;;;16.37;9.70;;;;;;;9.90;88.30;101582.88;2082558;28;20021;-62
2021/09/20 01:10:44;;;;;;;11.48;8.90;;;;;;;9.91;88.21;101584.56;2082402;28;20080;-63
2021/09/20 01:11:45;;;;;;;12.23;9.07;;;;;;;9.91;87.73;101582.84;2082605;28;20552;-63
2021/09/20 01:12:45;;;;;;;12.53;8.80;;;;;;;9.89;88.20;101578.56;2091379;28;20428;-63
2021/09/20 01:13:45;;;;;;;11.27;7.93;;;;;;;9.89;88.14;101581.16;2091307;28;20020;-63
2021/09/20 01:14:45;;;;;;;13.70;9.27;;;;;;;9.89;88.15;101596.81;2091325;28;20017;-63
2021/09/20 01:15:46;;;;;;;11.43;10.03;;;;;;;9.87;87.46;101588.16;2091265;28;20017;-63
2021/09/20 01:16:46;;;;;;;14.97;9.00;;;;;;;9.86;88.04;101591.69;2082348;28;20120;-63
2021/09/20 01:17:46;;;;;;;13.73;8.80;;;;;;;9.85;87.63;101589.97;2082538;28;20049;-63
2021/09/20 01:18:47;;;;;;;15.07;9.27;;;;;;;9.85;87.84;101589.97;2091268;28;20096;-63
2021/09/20 01:19:47;;;;;;;14.27;9.93;;;;;;;9.85;88.38;101603.00;2091054;28;20036;-63
2021/09/20 01:20:48;;;;;;;14.43;9.33;;;;;;;9.82;87.80;101579.63;2091087;28;20037;-63
2021/09/20 01:21:48;;;;;;;14.50;9.60;;;;;;;9.82;87.87;101584.84;2082305;28;20037;-63
2021/09/20 01:22:58;;;;;;;11.93;8.80;;;;;;;9.79;88.06;101584.00;2082418;28;20084;-63
2021/09/20 01:23:59;;;;;;;10.63;8.50;;;;;;;9.78;88.68;101586.66;2082223;28;20501;-63
2021/09/20 01:24:59;;;;;;;15.07;9.90;;;;;;;9.77;88.31;101584.94;2082378;28;20025;-62
2021/09/20 01:25:59;;;;;;;14.03;8.70;;;;;;;9.77;88.55;101587.56;2091138;28;20025;-62
2021/09/20 01:27:03;;;;;;;11.30;9.57;;;;;;;9.81;88.38;101588.34;2091001;28;20036;-62
2021/09/20 01:28:04;;;;;;;11.45;8.98;;;;;;;9.81;88.31;101594.41;2091209;28;20025;-62
2021/09/20 01:29:06;;;;;;;16.05;9.82;;;;;;;9.82;88.09;101584.84;2082256;28;20064;-63
2021/09/20 01:30:07;;;;;;;15.90;9.25;;;;;;;9.83;88.71;101597.84;2082577;28;20028;-64
2021/09/20 01:31:10;;;;;;;12.98;9.65;;;;;;;9.83;88.34;101589.16;2091201;28;20043;-62
2021/09/20 01:32:10;;;;;;;12.38;9.73;;;;;;;9.83;88.53;101592.63;2091123;28;20021;-62
2021/09/20 01:33:10;;;;;;;11.27;8.67;;;;;;;9.82;87.79;101588.28;2091101;28;20065;-63
2021/09/20 01:34:11;;;;;;;13.13;8.40;;;;;;;9.85;88.05;101595.19;2091152;28;20025;-63
2021/09/20 01:35:11;;;;;;;13.33;9.70;;;;;;;9.85;88.16;101584.75;2091119;28;20113;-63
2021/09/20 01:36:11;;;;;;;13.13;9.63;;;;;;;9.83;87.43;101586.53;2091105;28;20478;-63
2021/09/20 01:37:12;;;;;;;15.07;10.30;;;;;;;9.82;87.77;101587.44;2091127;28;20417;-62
2021/09/20 01:38:12;;;;;;;13.35;9.07;;;;;;;9.81;88.50;101593.56;2091094;28;20421;-62
2021/09/20 01:39:17;;;;;;;11.33;8.97;;;;;;;9.81;88.04;101596.16;2091080;28;20386;-63
2021/09/20 01:40:18;;;;;;;12.02;9.75;;;;;;;9.82;88.11;101596.09;2091090;28;20052;-63
2021/09/20 01:41:18;;;;;;;14.73;9.40;;;;;;;9.82;87.57;101595.25;2082175;28;20486;-63
2021/09/20 01:42:19;;;;;;;14.43;9.83;;;;;;;9.83;87.17;101592.63;2082255;28;20133;-63
2021/09/20 01:43:20;;;;;;;16.08;9.07;;;;;;;9.86;87.44;101596.88;2091069;28;20466;-63
2021/09/20 01:44:21;;;;;;;14.35;9.45;;;;;;;9.87;87.53;101593.38;2091063;28;20024;-64
2021/09/20 01:45:23;;;;;;;14.27;10.80;;;;;;;9.88;88.24;101602.91;2091060;28;20088;-63
2021/09/20 01:46:23;;;;;;;13.25;9.15;;;;;;;9.91;88.08;101608.03;2082079;28;20063;-62
2021/09/20 01:47:24;;;;;;;13.67;10.30;;;;;;;9.93;87.78;101595.84;2082159;28;20056;-62
2021/09/20 01:48:24;;;;;;;13.50;9.77;;;;;;;9.97;87.75;101599.19;2082136;28;20403;-63
2021/09/20 01:49:26;;;;;;;11.27;8.53;;;;;;;10.00;88.08;101599.97;2082281;28;20026;-62
2021/09/20 01:50:28;;;;;;;16.75;10.48;;;;;;;10.04;88.02;101595.53;2091074;28;20124;-63
2021/09/20 01:51:28;;;;;;;;;;;;;;;10.09;87.48;101598.00;2091457;28;20036;-63
2021/09/20 01:52:28;;;;;;;11.82;9.07;;;;;;;10.11;86.60;101593.59;2091086;28;19908;-63
2021/09/20 01:53:29;;;;;;;13.65;10.25;;;;;;;10.14;86.30;101593.50;2090977;28;20025;-63
2021/09/20 01:54:29;;;;;;;11.93;9.27;;;;;;;10.17;87.65;101596.88;2091009;28;20393;-63
2021/09/20 01:55:30;;;;;;;14.50;10.43;;;;;;;10.20;86.20;101595.09;2091084;28;20471;-62
2021/09/20 01:56:32;;;;;;;14.13;9.27;;;;;;;10.22;86.88;101593.28;2091043;28;20036;-63
2021/09/20 01:57:32;;;;;;;14.05;9.57;;;;;;;10.23;86.84;101595.84;2091049;28;20023;-63
2021/09/20 01:58:33;;;;;;;15.35;10.30;;;;;;;10.24;87.13;101600.19;2090999;28;20025;-63
2021/09/20 01:59:33;;;;;;;13.67;10.40;;;;;;;10.26;86.73;101600.09;2090876;28;20104;-63
2021/09/20 02:00:34;;;;;;;15.63;10.50;;;;;;;10.25;86.56;101596.66;2091030;28;20388;-63
2021/09/20 02:01:35;;;;;;;11.52;10.07;;;;;;;10.25;87.19;101604.50;2091029;28;20028;-63
2021/09/20 02:02:35;;;;;;;14.07;10.27;;;;;;;10.27;86.66;101599.22;2090965;28;20104;-64
2021/09/20 02:03:35;;;;;;;11.37;8.93;;;;;;;10.29;87.55;101600.91;2090972;28;20020;-63
2021/09/20 02:04:35;;;;;;;12.53;9.87;;;;;;;10.29;86.06;101595.69;2091012;28;20462;-63
2021/09/20 02:05:36;;;;;;;15.27;10.23;;;;;;;10.31;84.92;101591.25;2090898;28;20116;-62
2021/09/20 02:06:36;;;;;;;14.20;10.27;;;;;;;10.34;85.14;101594.69;2090857;28;20060;-62
2021/09/20 02:07:37;;;;;;;14.63;10.27;;;;;;;10.37;85.29;101595.44;2090238;28;20527;-63
2021/09/20 02:08:37;;;;;;;13.77;10.20;;;;;;;10.37;85.92;101592.81;2082059;28;20017;-63
2021/09/20 02:09:37;;;;;;;13.13;10.70;;;;;;;10.38;85.90;101601.53;2081248;28;20112;-64
2021/09/20 02:10:38;;;;;;;14.30;9.53;;;;;;;10.35;85.32;101599.84;2090910;28;20044;-64
2021/09/20 02:11:39;;;;;;;13.40;10.07;;;;;;;10.36;85.88;101591.13;2091080;28;20028;-63
2021/09/20 02:12:40;;;;;;;13.07;8.95;;;;;;;10.35;86.27;101599.84;2090924;28;20028;-63
2021/09/20 02:13:40;;;;;;;14.43;9.70;;;;;;;10.35;85.65;101605.06;2090977;28;20075;-63
2021/09/20 02:14:40;;;;;;;11.53;9.87;;;;;;;10.36;85.31;101603.31;2090873;28;20032;-63
2021/09/20 02:15:41;;;;;;;12.37;9.63;;;;;;;10.37;85.27;101607.66;2090698;28;20035;-63
2021/09/20 02:16:41;;;;;;;14.40;9.47;;;;;;;10.35;86.02;101609.44;2090947;28;20432;-62
2021/09/20 02:17:42;;;;;;;16.60;10.55;;;;;;;10.38;85.76;101609.34;2090903;28;20099;-63
2021/09/20 02:18:42;;;;;;;13.68;9.35;;;;;;;10.39;86.17;101611.06;2090822;28;20021;-63
2021/09/20 02:19:42;;;;;;;11.13;8.70;;;;;;;10.40;85.40;101607.56;2090776;28;20445;-62
2021/09/20 02:20:43;;;;;;;13.00;10.02;;;;;;;10.39;84.83;101601.47;2090697;28;20439;-63
2021/09/20 02:21:43;;;;;;;13.30;9.53;;;;;;;10.41;85.03;101598.81;2090658;28;20124;-63
2021/09/20 02:22:43;;;;;;;13.37;10.40;;;;;;;10.42;85.11;101590.09;2081794;28;20030;-66
2021/09/20 02:23:43;;;;;;;14.57;9.93;;;;;;;10.45;84.64;101608.31;2082058;28;20021;-62
2021/09/20 02:24:44;;;;;;;12.53;9.37;;;;;;;10.47;85.88;101603.88;2090669;28;20473;-63
2021/09/20 02:25:44;;;;;;;12.43;10.13;;;;;;;10.44;85.68;101609.19;2090792;28;20086;-62
2021/09/20 02:26:44;;;;;;;13.20;9.93;;;;;;;10.41;84.71;101611.88;2090734;28;20025;-63
2021/09/20 02:27:45;;;;;;;15.27;10.13;;;;;;;10.37;85.18;101610.25;2090638;28;20037;-63
2021/09/20 02:28:45;;;;;;;14.53;10.37;;;;;;;10.31;85.51;101604.28;2090603;28;20017;-63
2021/09/20 02:29:45;;;;;;;11.13;8.87;;;;;;;10.30;85.20;101601.75;2090515;28;20035;-63
2021/09/20 02:30:46;;;;;;;15.60;10.53;;;;;;;10.28;84.84;101604.41;2090631;28;20024;-62
2021/09/20 02:31:46;;;;;;;14.87;11.90;;;;;;;10.27;84.53;101607.91;2090656;28;20078;-63
2021/09/20 02:32:46;;;;;;;14.83;10.27;;;;;;;10.25;84.47;101594.06;2081630;28;20026;-63
2021/09/20 02:33:47;;;;;;;13.33;10.37;;;;;;;10.25;84.48;101594.06;2081865;28;20030;-63
2021/09/20 02:34:47;;;;;;;15.07;10.27;;;;;;;10.20;84.11;101601.16;2090600;28;20037;-63
2021/09/20 02:35:47;;;;;;;16.90;10.00;;;;;;;10.16;85.26;101604.75;2090661;28;20035;-63
2021/09/20 02:36:48;;;;;;;14.37;10.53;;;;;;;10.11;85.27;101606.63;2090662;28;20040;-63
2021/09/20 02:37:48;;;;;;;12.87;9.90;;;;;;;10.03;85.91;101599.03;2081606;28;20128;-63
2021/09/20 02:38:48;;;;;;;13.13;9.40;;;;;;;9.96;86.54;101616.59;2081800;28;20032;-62
2021/09/20 02:39:49;;;;;;;12.03;9.57;;;;;;;9.91;86.98;101608.03;2081687;28;20029;-63
2021/09/20 02:40:49;;;;;;;14.70;9.97;;;;;;;9.84;87.27;101615.19;2081828;28;20036;-63
2021/09/20 02:41:49;;;;;;;12.30;9.40;;;;;;;9.82;86.20;101616.13;2090579;28;20060;-63
2021/09/20 02:42:50;;;;;;;10.50;9.20;;;;;;;9.79;86.36;101620.50;2090678;28;20025;-63
2021/09/20 02:43:50;;;;;;;15.20;9.73;;;;;;;9.74;86.39;101619.78;2090596;28;20029;-63
2021/09/20 02:44:50;;;;;;;13.80;10.53;;;;;;;9.70;85.91;101620.75;2090555;28;20025;-63
2021/09/20 02:45:51;;;;;;;11.97;10.03;;;;;;;9.66;86.17;101617.38;2090535;28;20052;-63
2021/09/20 02:46:52;;;;;;;12.23;9.48;;;;;;;9.64;86.76;101613.97;2090529;28;20024;-63
2021/09/20 02:47:52;;;;;;;14.47;11.27;;;;;;;9.61;87.28;101610.59;2090549;28;20443;-63
2021/09/20 02:48:52;;;;;;;11.43;9.77;;;;;;;9.57;86.71;101608.94;2081545;28;20044;-63
2021/09/20 02:49:52;;;;;;;13.83;11.07;;;;;;;9.55;87.43;101611.59;2081615;28;20091;-63
2021/09/20 02:50:53;;;;;;;16.17;9.27;;;;;;;9.55;88.54;101614.22;2090366;28;20040;-63
2021/09/20 02:51:53;;;;;;;13.88;10.30;;;;;;;9.47;88.14;101609.19;2090464;28;20033;-63
2021/09/20 02:52:54;;;;;;;12.07;9.90;;;;;;;9.44;87.78;101617.06;2090454;28;20040;-63
2021/09/20 02:53:54;;;;;;;16.03;9.73;;;;;;;9.39;88.12;101608.53;2090311;28;20032;-63
2021/09/20 02:54:54;;;;;;;12.80;9.27;;;;;;;9.35;88.17;101606.88;2090193;28;20031;-62
2021/09/20 02:55:54;;;;;;;11.40;8.93;;;;;;;9.33;88.28;101619.06;2090360;28;20024;-62
2021/09/20 02:56:55;;;;;;;14.47;10.13;;;;;;;9.32;88.20;101612.16;2090366;28;20124;-62
2021/09/20 02:57:55;;;;;;;14.00;9.17;;;;;;;9.28;88.29;101616.59;2090441;28;20397;-63
2021/09/20 02:58:55;;;;;;;15.40;9.50;;;;;;;9.24;88.50;101610.59;2090051;28;20056;-63
2021/09/20 02:59:56;;;;;;;12.63;9.10;;;;;;;9.21;88.54;101615.88;2090212;28;20100;-63
2021/09/20 03:00:56;;;;;;;15.77;10.63;;;;;;;9.19;88.33;101607.25;2090296;28;20108;-63
2021/09/20 03:01:57;;;;;;;13.65;10.15;;;;;;;9.20;88.59;101608.13;2090370;28;20111;-63
2021/09/20 03:02:57;;;;;;;15.23;11.30;;;;;;;9.20;88.59;101608.97;2081454;28;20030;-63
2021/09/20 03:03:57;;;;;;;16.33;10.33;;;;;;;9.19;88.76;101606.41;2081377;28;20026;-62
2021/09/20 03:04:57;;;;;;;16.17;10.47;;;;;;;9.18;88.93;101610.78;2090275;28;20029;-62
2021/09/20 03:05:58;;;;;;;13.57;9.50;;;;;;;9.17;88.95;101608.19;2090337;28;20033;-62
2021/09/20 03:06:58;;;;;;;13.20;9.80;;;;;;;9.14;88.35;101611.72;2090376;28;20033;-64
2021/09/20 03:07:58;;;;;;;13.67;9.17;;;;;;;9.14;88.03;101622.16;2090251;28;20436;-63
2021/09/20 03:08:58;;;;;;;15.33;10.57;;;;;;;9.14;88.58;101624.75;2090286;28;20067;-64
2021/09/20 03:09:59;;;;;;;16.73;8.67;;;;;;;9.10;88.51;101618.75;2090089;28;20102;-63
2021/09/20 03:10:59;;;;;;;8.20;6.13;;;;;;;9.09;88.64;101626.59;2090031;28;20470;-64
2021/09/20 03:12:00;;;;;;;10.43;7.60;;;;;;;9.04;88.86;101623.25;2090014;28;20463;-63
2021/09/20 03:13:01;;;;;;;15.40;9.17;;;;;;;8.97;88.73;101625.97;2090028;28;20025;-61
2021/09/20 03:14:02;;;;;;;13.55;8.55;;;;;;;8.95;89.09;101622.56;2089985;28;20293;-62
2021/09/20 03:15:03;;;;;;;13.35;11.52;;;;;;;8.96;89.04;101628.66;2090130;28;20021;-62
2021/09/20 03:16:03;;;;;;;15.07;9.48;;;;;;;8.92;89.33;101622.63;2089997;28;20056;-62
2021/09/20 03:17:04;;;;;;;11.90;8.05;;;;;;;8.89;89.78;101625.31;2089905;28;20047;-62
2021/09/20 03:18:04;;;;;;;13.23;9.88;;;;;;;8.87;89.58;101630.53;2090102;28;20029;-63
2021/09/20 03:19:05;;;;;;;13.80;10.03;;;;;;;8.86;89.70;101631.44;2090265;28;20116;-63
2021/09/20 03:20:06;;;;;;;10.77;8.97;;;;;;;8.84;89.50;101621.97;2081042;28;20029;-63
2021/09/20 03:21:06;;;;;;;14.73;9.27;;;;;;;8.82;89.69;101629.81;2081000;28;20536;-63
2021/09/20 03:22:06;;;;;;;14.40;8.70;;;;;;;8.79;89.95;101629.03;2090014;28;20044;-63
2021/09/20 03:23:07;;;;;;;12.60;8.83;;;;;;;8.77;89.97;101626.47;2081004;28;20045;-63
2021/09/20 03:24:09;;;;;;;15.03;9.93;;;;;;;8.73;89.98;101636.06;2081283;28;20032;-64
2021/09/20 03:25:10;;;;;;;12.75;10.18;;;;;;;8.73;90.30;101636.06;2090186;28;20036;-63
2021/09/20 03:26:10;;;;;;;;;;;;;;;8.70;89.83;101630.94;2090646;28;20029;-63
2021/09/20 03:27:11;;;;;;;;;;;;;;;8.69;89.82;101642.22;2081849;28;19909;-63
2021/09/20 03:28:11;;;;;;;;;;;;;;;8.68;89.74;101647.47;2081769;28;20389;-63
2021/09/20 03:29:11;;;;;;;;;;;;;;;8.66;89.86;101644.91;2089946;28;19944;-63
2021/09/20 03:30:13;;;;;;;;;;;;;;;8.63;90.31;101645.81;2090737;28;20337;-64
2021/09/20 03:31:13;;;;;;;;;;;;;;;8.62;90.12;101653.66;2090612;28;19916;-63
2021/09/20 03:32:13;;;;;;;;;;;;;;;8.62;90.21;101649.31;2090645;28;19908;-63
2021/09/20 03:33:13;;;;;;;;;;;;;;;8.61;90.56;101652.81;2090654;28;19944;-63
2021/09/20 03:34:13;;;;;;;;;;;;;;;8.61;90.21;101649.34;2081806;28;19917;-63
2021/09/20 03:35:14;;;;;;;;;;;;;;;8.61;90.51;101657.16;2073669;28;20028;-63
2021/09/20 03:36:14;;;;;;;;;;;;;;;8.61;90.48;101650.22;2081822;28;19920;-63
2021/09/20 03:37:14;;;;;;;;;;;;;;;8.62;90.89;101648.44;2090065;28;20014;-63
2021/09/20 03:38:15;;;;;;;;;;;;;;;8.62;90.51;101648.44;2090697;28;19912;-63
2021/09/20 03:39:15;;;;;;;;;;;;;;;8.62;90.75;101651.03;2081879;28;19917;-64
2021/09/20 03:40:16;;;;;;;;;;;;;;;8.59;90.52;101654.56;2081783;28;19909;-63
2021/09/20 03:41:16;;;;;;;;;;;;;;;8.60;90.98;101650.25;2090632;28;19908;-64
2021/09/20 03:42:17;;;;;;;;;;;;;;;8.58;90.56;101647.66;2090620;28;19963;-63
2021/09/20 03:43:17;;;;;;;;;;;;;;;8.57;91.01;101648.56;2090560;28;19916;-63
2021/09/20 03:44:17;;;;;;;;;;;;;;;8.55;91.03;101650.31;2090595;28;19908;-63
2021/09/20 03:45:17;;;;;;;;;;;;;;;8.54;91.33;101653.81;2090585;28;19956;-62
2021/09/20 03:46:17;;;;;;;;;;;;;;;8.52;91.24;101652.94;2081581;28;19913;-62
2021/09/20 03:47:18;;;;;;;;;;;;;;;8.50;91.15;101650.41;2081752;28;20268;-63
2021/09/20 03:48:18;;;;;;;;;;;;;;;8.49;91.42;101648.69;2090592;28;20290;-62
2021/09/20 03:49:18;;;;;;;;;;;;;;;8.47;91.76;101647.88;2090580;28;19954;-63
2021/09/20 03:50:18;;;;;;;;;;;;;;;8.47;91.40;101655.66;2090635;28;19912;-63
2021/09/20 03:51:19;;;;;;;;;;;;;;;8.44;91.66;101655.72;2090679;28;19913;-63
2021/09/20 03:52:19;;;;;;;;;;;;;;;8.41;91.65;101650.56;2081719;28;19915;-63
2021/09/20 03:53:19;;;;;;;;;;;;;;;8.40;91.38;101648.88;2081673;28;19952;-63
2021/09/20 03:54:19;;;;;;;;;;;;;;;8.38;91.58;101651.50;2090451;28;20328;-62
2021/09/20 03:55:20;;;;;;;;;;;;;;;8.36;91.61;101647.22;2081690;28;19909;-62
2021/09/20 03:56:20;;;;;;;;;;;;;;;8.33;91.55;101650.75;2073438;28;19909;-63
2021/09/20 03:57:20;;;;;;;;;;;;;;;8.31;91.80;101649.91;2081665;28;19938;-62
2021/09/20 03:58:20;;;;;;;;;;;;;;;8.32;91.86;101655.97;2090443;28;19909;-62
2021/09/20 03:59:20;;;;;;;;;;;;;;;8.30;91.82;101653.41;2090531;28;19916;-64
2021/09/20 04:00:20;;;;;;;;;;;;;;;8.30;91.88;101657.75;2090642;28;19916;-63
2021/09/20 04:01:21;;;;;;;;;;;;;;;8.27;91.73;101652.59;2090523;28;20310;-63
2021/09/20 04:02:21;;;;;;;;;;;;;;;8.25;91.91;101655.25;2090583;28;20317;-63
2021/09/20 04:03:21;;;;;;;;;;;;;;;8.24;91.89;101654.38;2090513;28;19940;-63
2021/09/20 04:04:21;;;;;;;;;;;;;;;8.22;92.02;101658.75;2090546;28;19916;-63
2021/09/20 04:05:22;;;;;;;;;;;;;;;8.20;92.20;101655.31;2090441;28;19908;-63
2021/09/20 04:06:22;;;;;;;;;;;;;;;8.20;91.93;101659.66;2090472;28;19916;-63
2021/09/20 04:07:22;;;;;;;;;;;;;;;8.16;92.09;101656.28;2090461;28;19912;-63
2021/09/20 04:08:27;;;;;;;;;;;;;;;8.18;92.33;101656.25;2081572;28;20406;-63
2021/09/20 04:09:27;;;;;;;;;;;;;;;8.18;92.41;101651.88;2082262;28;19909;-63
2021/09/20 04:10:27;;;;;;;;;;;;;;;8.18;92.07;101649.28;2090468;28;19916;-63
2021/09/20 04:11:28;;;;;;;;;;;;;;;8.17;92.25;101660.59;2090526;28;19909;-64
2021/09/20 04:12:29;;;;;;;;;;;;;;;8.15;92.25;101653.69;2090478;28;19948;-64
2021/09/20 04:13:29;;;;;;;;;;;;;;;8.15;92.15;101659.78;2090557;28;19915;-63
2021/09/20 04:14:29;;;;;;;;;;;;;;;8.10;92.06;101648.59;2090631;28;19908;-63
2021/09/20 04:15:29;;;;;;;;;;;;;;;8.11;92.45;101658.13;2090580;28;20339;-63
2021/09/20 04:16:29;;;;;;;;;;;;;;;8.12;92.22;101654.63;2081652;28;19944;-63
2021/09/20 04:17:29;;;;;;;;;;;;;;;8.11;92.43;101658.13;2081563;28;20456;-63
2021/09/20 04:18:30;;;;;;;;;;;;;;;8.11;92.01;101658.13;2090482;28;19909;-63
2021/09/20 04:19:30;;;;;;;;;;;;;;;8.12;92.25;101665.03;2090499;28;19954;-62
2021/09/20 04:20:30;;;;;;;;;;;;;;;8.10;92.16;101657.25;2090455;28;19912;-63
2021/09/20 04:21:30;;;;;;;;;;;;;;;8.10;92.22;101661.59;2090408;28;19917;-63
2021/09/20 04:22:31;;;;;;;;;;;;;;;8.09;92.23;101654.69;2090449;28;19927;-62
2021/09/20 04:23:31;;;;;;;;;;;;;;;8.06;92.28;101654.72;2081528;28;19919;-63
2021/09/20 04:24:31;;;;;;;;;;;;;;;8.06;91.97;101659.94;2081680;28;19952;-63
2021/09/20 04:25:31;;;;;;;;;;;;;;;8.04;91.97;101666.91;2090387;28;20247;-64
2021/09/20 04:26:32;;;;;;;;;;;;;;;8.01;91.88;101662.63;2090350;28;20011;-63
2021/09/20 04:27:32;;;;;;;;;;;;;;;7.99;92.13;101665.25;2081545;28;19967;-63
2021/09/20 04:28:32;;;;;;;;;;;;;;;7.95;92.24;101663.59;2081609;28;19913;-63
2021/09/20 04:29:32;;;;;;;;;;;;;;;7.93;92.29;101660.16;2089741;28;19913;-63
2021/09/20 04:30:33;;;;;;;;;;;;;;;7.93;92.30;101665.34;2090438;28;19931;-62
2021/09/20 04:31:33;;;;;;;;;;;;;;;7.94;92.48;101664.47;2090417;28;19971;-64
2021/09/20 04:32:33;;;;;;;;;;;;;;;7.95;92.63;101662.72;2090624;28;20265;-63
2021/09/20 04:33:33;;;;;;;;;;;;;;;7.95;92.48;101668.81;2092057;28;19909;-63
2021/09/20 04:34:33;;;;;;;;;;;;;;;7.95;92.64;101665.34;2092129;28;19912;-63
2021/09/20 04:35:34;;;;;;;;;;;;;;;7.98;92.61;101667.88;2092084;28;19999;-63
2021/09/20 04:36:34;;;;;;;;;;;;;;;7.99;92.40;101669.59;2092090;28;19979;-64
2021/09/20 04:37:35;;;;;;;;;;;;;;;7.99;92.29;101674.78;2092085;28;19958;-63
2021/09/20 04:38:35;;;;;;;;;;;;;;;8.00;92.14;101679.09;2092032;28;19915;-64
2021/09/20 04:39:35;;;;;;;;;;;;;;;7.98;92.21;101679.13;2092004;28;19919;-64
2021/09/20 04:40:36;;;;;;;;;;;;;;;7.96;92.15;101670.50;2092030;28;20009;-63
2021/09/20 04:41:39;;;;;;;;;;;;;;;7.95;91.96;101679.19;2091939;28;19962;-64
2021/09/20 04:42:39;;;;;;;;;;;;;;;7.94;92.01;101677.47;2083166;28;19913;-63
2021/09/20 04:43:39;;;;;;;;;;;;;;;7.92;91.97;101684.44;2083066;28;19951;-63
2021/09/20 04:44:40;;;;;;;;;;;;;;;7.90;92.31;101681.00;2091369;28;19960;-63
2021/09/20 04:45:41;;;;;;;;;;;;;;;7.89;92.21;101681.88;2092091;28;20010;-63
2021/09/20 04:46:41;;;;;;;;;;;;;;;7.86;92.30;101684.53;2091948;28;19920;-63
2021/09/20 04:47:42;;;;;;;;;;;;;;;7.85;92.24;101693.22;2083121;28;20364;-64
2021/09/20 04:48:42;;;;;;;;;;;;;;;7.82;92.06;101693.28;2083275;28;20007;-63